Murrieta, CA (92563)

4:46 AM PST on December 05, 2016 (GMT -0800)
Cresta Del Reyo | | Change Station

Elev 1305 ft 33.57 °N, 117.14 °W | Updated 4 minutes ago

Clear
Clear
39.0 °F
Feels Like 39 °F
N
0.6
Wind Variable Wind from NNW
Gusts 1.2 mph

Today
High -- | Low -- °F
--% Chance of Precip.
Yesterday
High -- | Low -- °F
Precip. -- in
Pressure 29.95 in
Visibility 10.0 miles
Clouds Clear
Windchill 39 °F
Dew Point 29 °F
Humidity 68%
Rainfall 0.00 in
Snow Depth Not available.
6:38 AM 4:40 PM
Waxing Crescent, 31% visible
METAR KF70 051235Z AUTO 00000KT 10SM CLR 04/M01 A2995 RMK AO1
Pressure 29.95 in
Visibility 10.0 miles
Clouds Clear
Windchill 39 °F
Dew Point 29 °F
Humidity 68%
Rainfall 0.00 in
Snow Depth Not available.
6:38 AM 4:40 PM
Waxing Crescent, 31% visible
METAR KF70 051235Z AUTO 00000KT 10SM CLR 04/M01 A2995 RMK AO1

10-Day Weather Forecast

Almanac

Astronomy

Dec. 05, 2016 Rise Set
Actual Time
Civil Twilight
Nautical Twilight
Astronomical Twilight
Moon
Length of Visible Light
Length of Day
Tomorrow will be .
, % of the Moon is Illuminated

Today's Extremes

State Highs State Lows

Community

WunderPhotos

Upload Photos

1,955,778 photos uploaded!

WunderBlog® & News

Nearby

Air Quality

  Air Quality AQ Index Pollutant
Not available.

Snow Depth

Station Depth Elevation

Earthquake Activity

City Distance Mag. Time & Date
Minimum magnitude displayed is 2.5.

Coastal Water Temperatures

Place Temperature

Stations

Nearby Weather Stations

Station Location Temp. Windchill Dew Point Humidity Wind Precip. Elev Updated Type
                   

Watches & Warnings

There are currently no watches in effect.